Main page
METAR-TAF:

METAR-TAF

Airports :

Termez, Uzbekistan

Termez Airport

latitude: 37-14N, longitude: 067-16E, elevation: 302 m

Current weather observation

The report was made 36 minutes ago, at 20:00 UTC
Wind 6 kt from the North/Northeast
Temperature 14°C
Humidity 58%
Pressure 1018 hPa
Visibility 10 km or more
no clouds below 1500 m and no cumulonimbus

METAR: UTST 302000Z 03006KT CAVOK 14/06 Q1018 R88/CLRD70 NOSIG

Time: 01:36 (20:36 UTC)

Forecast

The report was made 3 hours and 36 minutes ago, at 17:00 UTC
Forecast valid from 30 at 18 UTC to 01 at 18 UTC
Wind 8 kt from the East/Northeast with gusts up to 18 kt
Visibility: 6000 m
Temporary
from 30 at 18 UTC to 01 at 03 UTC
Wind 6 kt from the North/Northeast with gusts up to 16 kt
Scattered clouds at a height of 6000 ft, Cumulonimbus.
Broken clouds at a height of 10000 ft

TAF: UTST 301700Z 3018/0118 07008G18KT 6000 NSC TEMPO 3018/0103 03006G16KT SCT060CB BKN100

Weather observations and forecasts of more than 4000 airports (METAR and TAF reports).

The available stations are represented by yellow and red dots on the map.

Hover mouse over dot to see the name of the station.

Then click to see weather observations and forecasts.

To change the map : click on the green buttons with a black cross to zoom in, on the green button with a dash to zoom out, or on the green arrows for adjacent maps.


METAR-TAF: